sensor_id;sensor_type;location;lat;lon;timestamp;P1;durP1;ratioP1;P2;durP2;ratioP2
74309;SDS011;62722;51.142;17.052;2022-10-17T00:00:42;30.02;;;17.15;;
74309;SDS011;62722;51.142;17.052;2022-10-17T00:03:27;35.05;;;17.38;;
74309;SDS011;62722;51.142;17.052;2022-10-17T00:05:55;33.50;;;17.15;;
74309;SDS011;62722;51.142;17.052;2022-10-17T00:08:23;34.50;;;17.10;;
74309;SDS011;62722;51.142;17.052;2022-10-17T00:10:56;36.03;;;18.27;;
74309;SDS011;62722;51.142;17.052;2022-10-17T00:13:25;33.60;;;17.65;;
74309;SDS011;62722;51.142;17.052;2022-10-17T00:15:53;33.92;;;17.70;;
74309;SDS011;62722;51.142;17.052;2022-10-17T00:18:20;33.67;;;16.60;;
74309;SDS011;62722;51.142;17.052;2022-10-17T00:20:47;32.83;;;17.58;;
74309;SDS011;62722;51.142;17.052;2022-10-17T00:23:14;36.00;;;18.85;;
74309;SDS011;62722;51.142;17.052;2022-10-17T00:25:42;30.70;;;16.58;;
74309;SDS011;62722;51.142;17.052;2022-10-17T00:28:10;33.38;;;17.08;;
74309;SDS011;62722;51.142;17.052;2022-10-17T00:30:39;35.33;;;18.45;;
74309;SDS011;62722;51.142;17.052;2022-10-17T00:33:06;36.67;;;19.30;;
74309;SDS011;62722;51.142;17.052;2022-10-17T00:35:33;29.67;;;16.70;;
74309;SDS011;62722;51.142;17.052;2022-10-17T00:38:00;31.30;;;16.80;;
74309;SDS011;62722;51.142;17.052;2022-10-17T00:40:27;32.55;;;17.65;;
74309;SDS011;62722;51.142;17.052;2022-10-17T00:42:54;36.50;;;18.02;;
74309;SDS011;62722;51.142;17.052;2022-10-17T00:45:24;32.60;;;16.48;;
74309;SDS011;62722;51.142;17.052;2022-10-17T00:47:53;30.27;;;16.80;;
74309;SDS011;62722;51.142;17.052;2022-10-17T00:50:24;32.22;;;16.67;;
74309;SDS011;62722;51.142;17.052;2022-10-17T00:52:52;30.23;;;16.70;;
74309;SDS011;62722;51.142;17.052;2022-10-17T00:55:23;37.47;;;18.63;;
74309;SDS011;62722;51.142;17.052;2022-10-17T01:00:21;33.88;;;17.10;;
74309;SDS011;62722;51.142;17.052;2022-10-17T01:02:51;37.53;;;20.05;;
74309;SDS011;62722;51.142;17.052;2022-10-17T01:05:19;37.22;;;19.95;;
74309;SDS011;62722;51.142;17.052;2022-10-17T01:07:46;40.47;;;19.85;;
74309;SDS011;62722;51.142;17.052;2022-10-17T01:10:15;36.90;;;18.65;;
74309;SDS011;62722;51.142;17.052;2022-10-17T01:12:49;36.03;;;18.05;;
74309;SDS011;62722;51.142;17.052;2022-10-17T01:15:26;36.72;;;18.75;;
74309;SDS011;62722;51.142;17.052;2022-10-17T01:18:07;34.50;;;17.30;;
74309;SDS011;62722;51.142;17.052;2022-10-17T01:24:01;36.28;;;17.58;;
74309;SDS011;62722;51.142;17.052;2022-10-17T01:26:54;36.17;;;18.70;;
74309;SDS011;62722;51.142;17.052;2022-10-17T01:30:02;34.25;;;16.77;;
74309;SDS011;62722;51.142;17.052;2022-10-17T01:32:52;38.28;;;17.60;;
74309;SDS011;62722;51.142;17.052;2022-10-17T01:35:25;36.70;;;18.08;;
74309;SDS011;62722;51.142;17.052;2022-10-17T01:37:58;34.95;;;17.35;;
74309;SDS011;62722;51.142;17.052;2022-10-17T01:40:33;30.48;;;16.90;;
74309;SDS011;62722;51.142;17.052;2022-10-17T01:43:04;39.80;;;18.92;;
74309;SDS011;62722;51.142;17.052;2022-10-17T01:45:36;34.03;;;18.23;;
74309;SDS011;62722;51.142;17.052;2022-10-17T01:48:13;37.28;;;18.55;;
74309;SDS011;62722;51.142;17.052;2022-10-17T01:50:44;36.70;;;18.02;;
74309;SDS011;62722;51.142;17.052;2022-10-17T01:53:15;38.15;;;19.52;;
74309;SDS011;62722;51.142;17.052;2022-10-17T01:55:47;36.38;;;17.33;;
74309;SDS011;62722;51.142;17.052;2022-10-17T01:58:19;37.50;;;19.42;;
74309;SDS011;62722;51.142;17.052;2022-10-17T02:00:49;37.58;;;18.65;;
74309;SDS011;62722;51.142;17.052;2022-10-17T02:03:20;36.80;;;18.52;;
74309;SDS011;62722;51.142;17.052;2022-10-17T02:05:50;40.13;;;19.50;;
74309;SDS011;62722;51.142;17.052;2022-10-17T02:08:23;36.85;;;18.00;;
74309;SDS011;62722;51.142;17.052;2022-10-17T02:10:53;39.70;;;19.65;;
74309;SDS011;62722;51.142;17.052;2022-10-17T02:13:26;40.05;;;18.38;;
74309;SDS011;62722;51.142;17.052;2022-10-17T02:16:11;39.45;;;19.63;;
74309;SDS011;62722;51.142;17.052;2022-10-17T02:19:03;36.85;;;18.65;;
74309;SDS011;62722;51.142;17.052;2022-10-17T02:21:49;39.97;;;19.80;;
74309;SDS011;62722;51.142;17.052;2022-10-17T02:24:23;40.08;;;19.88;;
74309;SDS011;62722;51.142;17.052;2022-10-17T02:29:32;37.65;;;18.20;;
74309;SDS011;62722;51.142;17.052;2022-10-17T02:32:02;34.25;;;17.40;;
74309;SDS011;62722;51.142;17.052;2022-10-17T02:34:35;37.67;;;18.52;;
74309;SDS011;62722;51.142;17.052;2022-10-17T02:37:06;37.83;;;18.92;;
74309;SDS011;62722;51.142;17.052;2022-10-17T02:39:37;34.33;;;18.45;;
74309;SDS011;62722;51.142;17.052;2022-10-17T02:42:08;36.95;;;18.13;;
74309;SDS011;62722;51.142;17.052;2022-10-17T02:44:39;34.00;;;18.40;;
74309;SDS011;62722;51.142;17.052;2022-10-17T02:47:10;38.67;;;18.85;;
74309;SDS011;62722;51.142;17.052;2022-10-17T02:49:45;35.25;;;18.08;;
74309;SDS011;62722;51.142;17.052;2022-10-17T02:52:16;35.50;;;17.45;;
74309;SDS011;62722;51.142;17.052;2022-10-17T02:54:53;35.80;;;18.40;;
74309;SDS011;62722;51.142;17.052;2022-10-17T02:57:24;39.63;;;18.60;;
74309;SDS011;62722;51.142;17.052;2022-10-17T02:59:55;37.75;;;18.85;;
74309;SDS011;62722;51.142;17.052;2022-10-17T03:02:25;33.40;;;17.95;;
74309;SDS011;62722;51.142;17.052;2022-10-17T03:04:54;39.35;;;17.92;;
74309;SDS011;62722;51.142;17.052;2022-10-17T03:07:21;35.67;;;17.85;;
74309;SDS011;62722;51.142;17.052;2022-10-17T03:09:49;34.38;;;17.42;;
74309;SDS011;62722;51.142;17.052;2022-10-17T03:12:16;36.60;;;18.48;;
74309;SDS011;62722;51.142;17.052;2022-10-17T03:14:43;39.28;;;18.20;;
74309;SDS011;62722;51.142;17.052;2022-10-17T03:17:10;35.00;;;17.90;;
74309;SDS011;62722;51.142;17.052;2022-10-17T03:19:37;36.63;;;18.15;;
74309;SDS011;62722;51.142;17.052;2022-10-17T03:22:06;41.60;;;20.25;;
74309;SDS011;62722;51.142;17.052;2022-10-17T03:24:33;39.72;;;19.83;;
74309;SDS011;62722;51.142;17.052;2022-10-17T03:27:00;42.95;;;20.20;;
74309;SDS011;62722;51.142;17.052;2022-10-17T03:29:27;39.70;;;20.52;;
74309;SDS011;62722;51.142;17.052;2022-10-17T03:31:54;46.13;;;20.23;;
74309;SDS011;62722;51.142;17.052;2022-10-17T03:34:21;41.50;;;18.98;;
74309;SDS011;62722;51.142;17.052;2022-10-17T03:36:48;39.92;;;18.88;;
74309;SDS011;62722;51.142;17.052;2022-10-17T03:39:17;36.70;;;18.38;;
74309;SDS011;62722;51.142;17.052;2022-10-17T03:41:44;34.70;;;17.30;;
74309;SDS011;62722;51.142;17.052;2022-10-17T03:44:11;39.13;;;19.25;;
74309;SDS011;62722;51.142;17.052;2022-10-17T03:46:38;34.78;;;18.80;;
74309;SDS011;62722;51.142;17.052;2022-10-17T03:49:07;34.58;;;17.50;;
74309;SDS011;62722;51.142;17.052;2022-10-17T03:51:34;36.55;;;17.52;;
74309;SDS011;62722;51.142;17.052;2022-10-17T03:54:02;34.22;;;17.45;;
74309;SDS011;62722;51.142;17.052;2022-10-17T03:56:30;38.53;;;18.33;;
74309;SDS011;62722;51.142;17.052;2022-10-17T03:58:58;36.00;;;18.02;;
74309;SDS011;62722;51.142;17.052;2022-10-17T04:01:25;37.50;;;18.77;;
74309;SDS011;62722;51.142;17.052;2022-10-17T04:03:52;34.00;;;17.80;;
74309;SDS011;62722;51.142;17.052;2022-10-17T04:06:21;35.17;;;17.17;;
74309;SDS011;62722;51.142;17.052;2022-10-17T04:08:48;37.50;;;18.77;;
74309;SDS011;62722;51.142;17.052;2022-10-17T04:11:16;37.67;;;18.33;;
74309;SDS011;62722;51.142;17.052;2022-10-17T04:13:46;41.92;;;18.85;;
74309;SDS011;62722;51.142;17.052;2022-10-17T04:16:17;40.05;;;19.73;;
74309;SDS011;62722;51.142;17.052;2022-10-17T04:18:44;42.03;;;20.20;;
74309;SDS011;62722;51.142;17.052;2022-10-17T04:21:12;43.47;;;21.88;;
74309;SDS011;62722;51.142;17.052;2022-10-17T04:23:40;43.50;;;20.25;;
74309;SDS011;62722;51.142;17.052;2022-10-17T04:26:07;39.78;;;21.15;;
74309;SDS011;62722;51.142;17.052;2022-10-17T04:28:34;43.20;;;20.48;;
74309;SDS011;62722;51.142;17.052;2022-10-17T04:31:04;35.83;;;19.48;;
74309;SDS011;62722;51.142;17.052;2022-10-17T04:33:32;42.88;;;19.73;;
74309;SDS011;62722;51.142;17.052;2022-10-17T04:36:00;38.10;;;20.25;;
74309;SDS011;62722;51.142;17.052;2022-10-17T04:38:29;35.95;;;19.60;;
74309;SDS011;62722;51.142;17.052;2022-10-17T04:40:56;40.97;;;20.25;;
74309;SDS011;62722;51.142;17.052;2022-10-17T04:43:24;40.67;;;19.55;;
74309;SDS011;62722;51.142;17.052;2022-10-17T04:45:51;43.33;;;20.30;;
74309;SDS011;62722;51.142;17.052;2022-10-17T04:48:20;43.13;;;20.15;;
74309;SDS011;62722;51.142;17.052;2022-10-17T04:50:53;35.58;;;18.67;;
74309;SDS011;62722;51.142;17.052;2022-10-17T04:53:21;39.65;;;19.70;;
74309;SDS011;62722;51.142;17.052;2022-10-17T04:55:49;38.75;;;19.58;;
74309;SDS011;62722;51.142;17.052;2022-10-17T04:58:17;36.63;;;20.20;;
74309;SDS011;62722;51.142;17.052;2022-10-17T05:00:44;41.35;;;19.65;;
74309;SDS011;62722;51.142;17.052;2022-10-17T05:03:13;40.22;;;20.77;;
74309;SDS011;62722;51.142;17.052;2022-10-17T05:05:42;40.30;;;20.55;;
74309;SDS011;62722;51.142;17.052;2022-10-17T05:08:09;44.95;;;19.75;;
74309;SDS011;62722;51.142;17.052;2022-10-17T05:10:37;44.70;;;20.35;;
74309;SDS011;62722;51.142;17.052;2022-10-17T05:13:06;37.72;;;19.35;;
74309;SDS011;62722;51.142;17.052;2022-10-17T05:15:34;37.90;;;19.52;;
74309;SDS011;62722;51.142;17.052;2022-10-17T05:18:02;40.28;;;19.08;;
74309;SDS011;62722;51.142;17.052;2022-10-17T05:20:29;39.08;;;19.67;;
74309;SDS011;62722;51.142;17.052;2022-10-17T05:22:59;40.95;;;20.00;;
74309;SDS011;62722;51.142;17.052;2022-10-17T05:25:26;36.53;;;18.48;;
74309;SDS011;62722;51.142;17.052;2022-10-17T05:27:53;40.92;;;18.42;;
74309;SDS011;62722;51.142;17.052;2022-10-17T05:30:20;36.25;;;17.75;;
74309;SDS011;62722;51.142;17.052;2022-10-17T05:32:50;34.03;;;17.60;;
74309;SDS011;62722;51.142;17.052;2022-10-17T05:35:18;35.03;;;18.15;;
74309;SDS011;62722;51.142;17.052;2022-10-17T05:37:46;34.72;;;17.10;;
74309;SDS011;62722;51.142;17.052;2022-10-17T05:40:14;39.03;;;19.15;;
74309;SDS011;62722;51.142;17.052;2022-10-17T05:42:44;38.97;;;19.83;;
74309;SDS011;62722;51.142;17.052;2022-10-17T05:45:12;45.30;;;19.85;;
74309;SDS011;62722;51.142;17.052;2022-10-17T05:47:39;39.55;;;20.25;;
74309;SDS011;62722;51.142;17.052;2022-10-17T05:50:07;39.00;;;19.02;;
74309;SDS011;62722;51.142;17.052;2022-10-17T05:52:35;38.45;;;21.23;;
74309;SDS011;62722;51.142;17.052;2022-10-17T05:55:02;43.05;;;19.00;;
74309;SDS011;62722;51.142;17.052;2022-10-17T05:57:31;41.72;;;20.95;;
74309;SDS011;62722;51.142;17.052;2022-10-17T05:59:58;43.08;;;21.00;;
74309;SDS011;62722;51.142;17.052;2022-10-17T06:02:26;45.65;;;21.90;;
74309;SDS011;62722;51.142;17.052;2022-10-17T06:04:56;47.40;;;23.83;;
74309;SDS011;62722;51.142;17.052;2022-10-17T06:07:25;53.42;;;23.92;;
74309;SDS011;62722;51.142;17.052;2022-10-17T06:09:56;51.72;;;23.25;;
74309;SDS011;62722;51.142;17.052;2022-10-17T06:12:23;48.97;;;22.80;;
74309;SDS011;62722;51.142;17.052;2022-10-17T06:14:52;52.30;;;24.67;;
74309;SDS011;62722;51.142;17.052;2022-10-17T06:17:19;53.13;;;24.15;;
74309;SDS011;62722;51.142;17.052;2022-10-17T06:19:46;56.22;;;26.42;;
74309;SDS011;62722;51.142;17.052;2022-10-17T06:22:14;54.58;;;24.05;;
74309;SDS011;62722;51.142;17.052;2022-10-17T06:24:41;53.75;;;23.17;;
74309;SDS011;62722;51.142;17.052;2022-10-17T06:27:09;52.78;;;24.25;;
74309;SDS011;62722;51.142;17.052;2022-10-17T06:29:36;51.80;;;24.55;;
74309;SDS011;62722;51.142;17.052;2022-10-17T06:32:05;47.60;;;23.33;;
74309;SDS011;62722;51.142;17.052;2022-10-17T06:34:32;49.75;;;24.27;;
74309;SDS011;62722;51.142;17.052;2022-10-17T06:36:59;51.25;;;24.20;;
74309;SDS011;62722;51.142;17.052;2022-10-17T06:39:26;49.13;;;23.05;;
74309;SDS011;62722;51.142;17.052;2022-10-17T06:41:58;49.13;;;24.10;;
74309;SDS011;62722;51.142;17.052;2022-10-17T06:44:25;51.13;;;23.15;;
74309;SDS011;62722;51.142;17.052;2022-10-17T06:46:56;46.95;;;21.77;;
74309;SDS011;62722;51.142;17.052;2022-10-17T06:49:25;49.28;;;22.13;;
74309;SDS011;62722;51.142;17.052;2022-10-17T06:51:52;47.38;;;22.25;;
74309;SDS011;62722;51.142;17.052;2022-10-17T06:54:20;49.33;;;22.65;;
74309;SDS011;62722;51.142;17.052;2022-10-17T06:56:47;44.63;;;21.38;;
74309;SDS011;62722;51.142;17.052;2022-10-17T06:59:14;41.22;;;20.88;;
74309;SDS011;62722;51.142;17.052;2022-10-17T07:01:42;40.90;;;20.77;;
74309;SDS011;62722;51.142;17.052;2022-10-17T07:04:10;44.92;;;22.60;;
74309;SDS011;62722;51.142;17.052;2022-10-17T07:06:39;40.25;;;20.15;;
74309;SDS011;62722;51.142;17.052;2022-10-17T07:09:06;43.90;;;19.85;;
74309;SDS011;62722;51.142;17.052;2022-10-17T07:11:34;40.75;;;19.20;;
74309;SDS011;62722;51.142;17.052;2022-10-17T07:14:01;47.35;;;21.52;;
74309;SDS011;62722;51.142;17.052;2022-10-17T07:16:28;40.92;;;19.08;;
74309;SDS011;62722;51.142;17.052;2022-10-17T07:18:55;41.17;;;19.60;;
74309;SDS011;62722;51.142;17.052;2022-10-17T07:21:23;38.10;;;20.05;;
74309;SDS011;62722;51.142;17.052;2022-10-17T07:23:51;44.20;;;19.75;;
74309;SDS011;62722;51.142;17.052;2022-10-17T07:26:19;39.00;;;19.77;;
74309;SDS011;62722;51.142;17.052;2022-10-17T07:28:46;43.67;;;20.27;;
74309;SDS011;62722;51.142;17.052;2022-10-17T07:31:19;37.28;;;19.35;;
74309;SDS011;62722;51.142;17.052;2022-10-17T07:33:47;37.75;;;20.58;;
74309;SDS011;62722;51.142;17.052;2022-10-17T07:36:15;38.90;;;19.10;;
74309;SDS011;62722;51.142;17.052;2022-10-17T07:38:43;33.72;;;18.25;;
74309;SDS011;62722;51.142;17.052;2022-10-17T07:41:12;39.67;;;19.33;;
74309;SDS011;62722;51.142;17.052;2022-10-17T07:43:39;34.47;;;17.60;;
74309;SDS011;62722;51.142;17.052;2022-10-17T07:46:07;33.28;;;17.88;;
74309;SDS011;62722;51.142;17.052;2022-10-17T07:48:35;34.10;;;17.25;;
74309;SDS011;62722;51.142;17.052;2022-10-17T07:51:05;35.97;;;18.02;;
74309;SDS011;62722;51.142;17.052;2022-10-17T07:53:34;37.92;;;18.17;;
74309;SDS011;62722;51.142;17.052;2022-10-17T07:56:03;39.33;;;19.08;;
74309;SDS011;62722;51.142;17.052;2022-10-17T07:58:32;30.95;;;16.02;;
74309;SDS011;62722;51.142;17.052;2022-10-17T08:01:01;36.00;;;17.83;;
74309;SDS011;62722;51.142;17.052;2022-10-17T08:03:28;36.45;;;17.67;;
74309;SDS011;62722;51.142;17.052;2022-10-17T08:05:56;34.92;;;17.25;;
74309;SDS011;62722;51.142;17.052;2022-10-17T08:08:23;36.72;;;17.00;;
74309;SDS011;62722;51.142;17.052;2022-10-17T08:10:51;34.33;;;18.55;;
74309;SDS011;62722;51.142;17.052;2022-10-17T08:13:18;34.20;;;17.25;;
74309;SDS011;62722;51.142;17.052;2022-10-17T08:15:47;34.17;;;19.00;;
74309;SDS011;62722;51.142;17.052;2022-10-17T08:18:14;30.08;;;16.30;;
74309;SDS011;62722;51.142;17.052;2022-10-17T08:20:42;33.90;;;17.67;;
74309;SDS011;62722;51.142;17.052;2022-10-17T08:23:09;32.72;;;16.42;;
74309;SDS011;62722;51.142;17.052;2022-10-17T08:25:37;32.67;;;16.70;;
74309;SDS011;62722;51.142;17.052;2022-10-17T08:28:04;30.02;;;15.55;;
74309;SDS011;62722;51.142;17.052;2022-10-17T08:30:32;26.35;;;15.50;;
74309;SDS011;62722;51.142;17.052;2022-10-17T08:33:00;34.13;;;16.73;;
74309;SDS011;62722;51.142;17.052;2022-10-17T08:35:28;28.88;;;15.40;;
74309;SDS011;62722;51.142;17.052;2022-10-17T08:37:57;30.90;;;16.83;;
74309;SDS011;62722;51.142;17.052;2022-10-17T08:40:26;28.40;;;14.98;;
74309;SDS011;62722;51.142;17.052;2022-10-17T08:43:24;28.60;;;15.30;;
74309;SDS011;62722;51.142;17.052;2022-10-17T08:45:57;27.73;;;14.20;;
74309;SDS011;62722;51.142;17.052;2022-10-17T08:48:29;26.05;;;14.05;;
74309;SDS011;62722;51.142;17.052;2022-10-17T08:51:00;25.77;;;13.52;;
74309;SDS011;62722;51.142;17.052;2022-10-17T08:53:32;25.48;;;14.32;;
74309;SDS011;62722;51.142;17.052;2022-10-17T08:58:33;25.88;;;14.35;;
74309;SDS011;62722;51.142;17.052;2022-10-17T09:01:05;26.60;;;14.13;;
74309;SDS011;62722;51.142;17.052;2022-10-17T09:03:43;34.83;;;21.52;;
74309;SDS011;62722;51.142;17.052;2022-10-17T09:06:20;30.52;;;19.00;;
74309;SDS011;62722;51.142;17.052;2022-10-17T09:09:01;26.50;;;14.52;;
74309;SDS011;62722;51.142;17.052;2022-10-17T09:11:41;26.40;;;14.77;;
74309;SDS011;62722;51.142;17.052;2022-10-17T09:14:27;27.13;;;14.45;;
74309;SDS011;62722;51.142;17.052;2022-10-17T09:17:12;24.95;;;13.98;;
74309;SDS011;62722;51.142;17.052;2022-10-17T09:19:48;23.85;;;13.63;;
74309;SDS011;62722;51.142;17.052;2022-10-17T09:22:24;23.73;;;13.23;;
74309;SDS011;62722;51.142;17.052;2022-10-17T09:24:56;29.70;;;14.35;;
74309;SDS011;62722;51.142;17.052;2022-10-17T09:27:31;25.15;;;14.05;;
74309;SDS011;62722;51.142;17.052;2022-10-17T09:30:09;24.63;;;14.20;;
74309;SDS011;62722;51.142;17.052;2022-10-17T09:32:50;25.80;;;13.43;;
74309;SDS011;62722;51.142;17.052;2022-10-17T09:35:20;26.65;;;13.05;;
74309;SDS011;62722;51.142;17.052;2022-10-17T09:37:49;24.73;;;12.75;;
74309;SDS011;62722;51.142;17.052;2022-10-17T09:40:18;24.38;;;13.65;;
74309;SDS011;62722;51.142;17.052;2022-10-17T09:42:49;25.30;;;13.13;;
74309;SDS011;62722;51.142;17.052;2022-10-17T09:45:18;23.02;;;12.50;;
74309;SDS011;62722;51.142;17.052;2022-10-17T09:47:52;25.45;;;12.55;;
74309;SDS011;62722;51.142;17.052;2022-10-17T09:50:25;22.65;;;12.15;;
74309;SDS011;62722;51.142;17.052;2022-10-17T09:52:54;19.58;;;11.82;;
74309;SDS011;62722;51.142;17.052;2022-10-17T09:55:25;22.13;;;11.88;;
74309;SDS011;62722;51.142;17.052;2022-10-17T09:58:00;21.80;;;11.85;;
74309;SDS011;62722;51.142;17.052;2022-10-17T10:00:30;21.50;;;12.18;;
74309;SDS011;62722;51.142;17.052;2022-10-17T10:03:09;20.55;;;11.93;;
74309;SDS011;62722;51.142;17.052;2022-10-17T10:05:56;23.48;;;12.23;;
74309;SDS011;62722;51.142;17.052;2022-10-17T10:08:26;20.65;;;11.32;;
74309;SDS011;62722;51.142;17.052;2022-10-17T10:10:59;21.33;;;11.85;;
74309;SDS011;62722;51.142;17.052;2022-10-17T10:13:29;18.13;;;11.02;;
74309;SDS011;62722;51.142;17.052;2022-10-17T10:16:12;26.33;;;12.82;;
74309;SDS011;62722;51.142;17.052;2022-10-17T10:18:42;25.65;;;12.77;;
74309;SDS011;62722;51.142;17.052;2022-10-17T10:21:12;18.63;;;10.20;;
74309;SDS011;62722;51.142;17.052;2022-10-17T10:23:41;21.42;;;11.73;;
74309;SDS011;62722;51.142;17.052;2022-10-17T10:26:22;19.83;;;10.40;;
74309;SDS011;62722;51.142;17.052;2022-10-17T10:28:54;18.77;;;10.48;;
74309;SDS011;62722;51.142;17.052;2022-10-17T10:33:58;18.00;;;9.90;;
74309;SDS011;62722;51.142;17.052;2022-10-17T10:36:43;16.30;;;10.15;;
74309;SDS011;62722;51.142;17.052;2022-10-17T10:39:19;19.10;;;10.50;;
74309;SDS011;62722;51.142;17.052;2022-10-17T10:41:55;17.50;;;10.15;;
74309;SDS011;62722;51.142;17.052;2022-10-17T10:44:23;20.55;;;11.15;;
74309;SDS011;62722;51.142;17.052;2022-10-17T10:47:06;18.23;;;10.18;;
74309;SDS011;62722;51.142;17.052;2022-10-17T10:49:40;17.50;;;9.75;;
74309;SDS011;62722;51.142;17.052;2022-10-17T10:52:10;16.90;;;9.82;;
74309;SDS011;62722;51.142;17.052;2022-10-17T10:54:50;15.18;;;9.25;;
74309;SDS011;62722;51.142;17.052;2022-10-17T10:57:23;16.17;;;9.38;;
74309;SDS011;62722;51.142;17.052;2022-10-17T10:59:57;18.77;;;8.90;;
74309;SDS011;62722;51.142;17.052;2022-10-17T11:02:29;15.02;;;8.82;;
74309;SDS011;62722;51.142;17.052;2022-10-17T11:05:05;14.40;;;8.75;;
74309;SDS011;62722;51.142;17.052;2022-10-17T11:07:42;15.75;;;8.68;;
74309;SDS011;62722;51.142;17.052;2022-10-17T11:10:14;17.27;;;8.88;;
74309;SDS011;62722;51.142;17.052;2022-10-17T11:12:47;14.70;;;8.57;;
74309;SDS011;62722;51.142;17.052;2022-10-17T11:15:22;13.65;;;8.32;;
74309;SDS011;62722;51.142;17.052;2022-10-17T11:17:58;16.05;;;9.05;;
74309;SDS011;62722;51.142;17.052;2022-10-17T11:20:29;15.35;;;8.77;;
74309;SDS011;62722;51.142;17.052;2022-10-17T11:23:08;15.55;;;9.70;;
74309;SDS011;62722;51.142;17.052;2022-10-17T11:25:46;16.90;;;8.77;;
74309;SDS011;62722;51.142;17.052;2022-10-17T11:28:16;14.55;;;8.95;;
74309;SDS011;62722;51.142;17.052;2022-10-17T11:30:45;16.17;;;8.07;;
74309;SDS011;62722;51.142;17.052;2022-10-17T11:33:22;15.30;;;8.68;;
74309;SDS011;62722;51.142;17.052;2022-10-17T11:35:54;15.82;;;9.18;;
74309;SDS011;62722;51.142;17.052;2022-10-17T11:38:32;16.08;;;8.48;;
74309;SDS011;62722;51.142;17.052;2022-10-17T11:41:07;13.70;;;8.43;;
74309;SDS011;62722;51.142;17.052;2022-10-17T11:43:43;13.38;;;8.27;;
74309;SDS011;62722;51.142;17.052;2022-10-17T11:46:14;16.85;;;9.20;;
74309;SDS011;62722;51.142;17.052;2022-10-17T11:48:47;14.45;;;8.68;;
74309;SDS011;62722;51.142;17.052;2022-10-17T11:51:25;14.20;;;8.38;;
74309;SDS011;62722;51.142;17.052;2022-10-17T11:53:56;15.00;;;8.35;;
74309;SDS011;62722;51.142;17.052;2022-10-17T11:56:30;14.35;;;8.13;;
74309;SDS011;62722;51.142;17.052;2022-10-17T11:59:13;12.55;;;7.93;;
74309;SDS011;62722;51.142;17.052;2022-10-17T12:02:07;12.02;;;7.25;;
74309;SDS011;62722;51.142;17.052;2022-10-17T12:04:41;12.70;;;8.27;;
74309;SDS011;62722;51.142;17.052;2022-10-17T12:07:29;13.75;;;8.60;;
74309;SDS011;62722;51.142;17.052;2022-10-17T12:10:17;13.00;;;7.50;;
74309;SDS011;62722;51.142;17.052;2022-10-17T12:22:00;13.00;;;7.43;;
74309;SDS011;62722;51.142;17.052;2022-10-17T12:24:38;13.13;;;7.82;;
74309;SDS011;62722;51.142;17.052;2022-10-17T12:27:30;12.43;;;7.53;;
74309;SDS011;62722;51.142;17.052;2022-10-17T12:30:04;12.93;;;7.28;;
74309;SDS011;62722;51.142;17.052;2022-10-17T12:32:52;14.55;;;8.73;;
74309;SDS011;62722;51.142;17.052;2022-10-17T12:35:25;11.90;;;7.97;;
74309;SDS011;62722;51.142;17.052;2022-10-17T12:40:54;15.48;;;8.00;;
74309;SDS011;62722;51.142;17.052;2022-10-17T12:43:45;13.00;;;8.30;;
74309;SDS011;62722;51.142;17.052;2022-10-17T12:49:40;14.32;;;7.68;;
74309;SDS011;62722;51.142;17.052;2022-10-17T12:52:20;12.68;;;7.68;;
74309;SDS011;62722;51.142;17.052;2022-10-17T12:54:53;12.68;;;7.82;;
74309;SDS011;62722;51.142;17.052;2022-10-17T12:57:32;12.02;;;7.57;;
74309;SDS011;62722;51.142;17.052;2022-10-17T13:00:11;12.18;;;7.47;;
74309;SDS011;62722;51.142;17.052;2022-10-17T13:02:42;11.93;;;7.75;;
74309;SDS011;62722;51.142;17.052;2022-10-17T13:05:12;12.45;;;6.72;;
74309;SDS011;62722;51.142;17.052;2022-10-17T13:07:45;12.82;;;7.10;;
74309;SDS011;62722;51.142;17.052;2022-10-17T13:10:18;12.75;;;7.18;;
74309;SDS011;62722;51.142;17.052;2022-10-17T13:12:47;13.57;;;6.65;;
74309;SDS011;62722;51.142;17.052;2022-10-17T13:15:18;13.00;;;7.65;;
74309;SDS011;62722;51.142;17.052;2022-10-17T13:17:54;11.13;;;7.15;;
74309;SDS011;62722;51.142;17.052;2022-10-17T13:20:23;12.23;;;7.78;;
74309;SDS011;62722;51.142;17.052;2022-10-17T13:22:56;12.63;;;7.63;;
74309;SDS011;62722;51.142;17.052;2022-10-17T13:25:26;14.68;;;7.43;;
74309;SDS011;62722;51.142;17.052;2022-10-17T13:28:04;15.38;;;8.30;;
74309;SDS011;62722;51.142;17.052;2022-10-17T13:30:39;12.43;;;7.68;;
74309;SDS011;62722;51.142;17.052;2022-10-17T13:33:18;14.85;;;8.23;;
74309;SDS011;62722;51.142;17.052;2022-10-17T13:35:56;15.10;;;7.88;;
74309;SDS011;62722;51.142;17.052;2022-10-17T13:38:25;14.02;;;8.05;;
74309;SDS011;62722;51.142;17.052;2022-10-17T13:40:56;12.57;;;7.75;;
74309;SDS011;62722;51.142;17.052;2022-10-17T13:43:24;12.20;;;7.90;;
74309;SDS011;62722;51.142;17.052;2022-10-17T13:45:54;12.70;;;7.68;;
74309;SDS011;62722;51.142;17.052;2022-10-17T13:48:26;13.32;;;7.95;;
74309;SDS011;62722;51.142;17.052;2022-10-17T13:50:56;12.63;;;8.18;;
74309;SDS011;62722;51.142;17.052;2022-10-17T13:53:28;15.40;;;8.52;;
74309;SDS011;62722;51.142;17.052;2022-10-17T13:55:57;13.95;;;8.10;;
74309;SDS011;62722;51.142;17.052;2022-10-17T13:58:36;14.30;;;8.00;;
74309;SDS011;62722;51.142;17.052;2022-10-17T14:01:07;15.30;;;8.15;;
74309;SDS011;62722;51.142;17.052;2022-10-17T14:03:35;15.52;;;7.82;;
74309;SDS011;62722;51.142;17.052;2022-10-17T14:06:10;14.05;;;7.40;;
74309;SDS011;62722;51.142;17.052;2022-10-17T14:08:47;12.73;;;8.30;;
74309;SDS011;62722;51.142;17.052;2022-10-17T14:11:26;14.20;;;8.38;;
74309;SDS011;62722;51.142;17.052;2022-10-17T14:13:58;13.15;;;8.02;;
74309;SDS011;62722;51.142;17.052;2022-10-17T14:16:34;13.80;;;8.23;;
74309;SDS011;62722;51.142;17.052;2022-10-17T14:19:04;13.02;;;7.88;;
74309;SDS011;62722;51.142;17.052;2022-10-17T14:21:32;12.30;;;7.93;;
74309;SDS011;62722;51.142;17.052;2022-10-17T14:24:13;14.15;;;7.55;;
74309;SDS011;62722;51.142;17.052;2022-10-17T14:26:50;14.40;;;7.82;;
74309;SDS011;62722;51.142;17.052;2022-10-17T14:29:23;17.70;;;10.50;;
74309;SDS011;62722;51.142;17.052;2022-10-17T14:32:02;11.55;;;7.07;;
74309;SDS011;62722;51.142;17.052;2022-10-17T14:34:35;12.23;;;7.50;;
74309;SDS011;62722;51.142;17.052;2022-10-17T14:37:08;13.82;;;7.45;;
74309;SDS011;62722;51.142;17.052;2022-10-17T14:39:37;11.23;;;7.07;;
74309;SDS011;62722;51.142;17.052;2022-10-17T14:42:04;9.93;;;6.00;;
74309;SDS011;62722;51.142;17.052;2022-10-17T14:44:32;13.05;;;6.10;;
74309;SDS011;62722;51.142;17.052;2022-10-17T14:47:03;11.65;;;6.57;;
74309;SDS011;62722;51.142;17.052;2022-10-17T14:49:35;11.07;;;5.95;;
74309;SDS011;62722;51.142;17.052;2022-10-17T14:52:10;13.98;;;7.40;;
74309;SDS011;62722;51.142;17.052;2022-10-17T14:54:53;12.38;;;6.72;;
74309;SDS011;62722;51.142;17.052;2022-10-17T14:57:22;13.13;;;6.47;;
74309;SDS011;62722;51.142;17.052;2022-10-17T14:59:51;10.43;;;6.00;;
74309;SDS011;62722;51.142;17.052;2022-10-17T15:02:20;11.48;;;6.72;;
74309;SDS011;62722;51.142;17.052;2022-10-17T15:04:47;9.57;;;6.30;;
74309;SDS011;62722;51.142;17.052;2022-10-17T15:07:15;13.43;;;6.85;;